Time;durP1;ratioP1;P1;durP2;ratioP2;P2;SDS_P1;SDS_P2;PMS_P1;PMS_P2;Temp;Humidity;BMP_temperature;BMP_pressure;BME280_temperature;BME280_humidity;BME280_pressure;Samples;Min_cycle;Max_cycle;Signal;HPM_P1;HPM_P2
2021/12/19 00:02:12;;;;;;;44.20;22.52;;;2.50;99.90;;;1.61;100.00;98886.34;5070198;28;20310;-82
2021/12/19 00:09:48;;;;;;;48.00;22.73;;;2.50;99.90;;;1.60;100.00;98884.59;5115465;28;20026;-82
2021/12/19 00:12:14;;;;;;;45.78;22.88;;;2.50;99.90;;;1.62;100.00;98862.13;5095069;28;20040;-82
2021/12/19 00:14:40;;;;;;;42.67;22.23;;;2.50;99.90;;;1.60;100.00;98872.47;5075291;28;20035;-82
2021/12/19 00:17:05;;;;;;;45.20;23.27;;;2.50;99.90;;;1.66;100.00;98874.34;5102024;22;20109;-47
2021/12/19 00:19:31;;;;;;;42.70;21.52;;;2.50;99.90;;;1.71;100.00;98876.19;5040212;28;20034;-45
2021/12/19 00:21:57;;;;;;;44.45;22.75;;;2.50;99.90;;;1.68;100.00;98873.50;5039588;28;20040;-46
2021/12/19 00:24:24;;;;;;;46.25;23.88;;;2.50;99.90;;;1.68;100.00;98873.50;5038772;28;20509;-42
2021/12/19 00:26:50;;;;;;;47.28;22.05;;;2.50;99.90;;;1.49;100.00;98868.75;5032647;28;20430;-50
2021/12/19 00:29:16;;;;;;;46.92;22.80;;;2.50;99.90;;;1.39;100.00;98874.59;5031518;28;20028;-47
2021/12/19 00:31:45;;;;;;;39.63;21.25;;;2.40;99.90;;;1.33;100.00;98860.59;5033727;28;20510;-46
2021/12/19 00:34:13;;;;;;;40.13;20.65;;;2.30;99.90;;;1.36;100.00;98856.31;5031365;28;20029;-47
2021/12/19 00:36:40;;;;;;;45.75;22.23;;;2.30;99.90;;;1.33;100.00;98858.00;5032848;28;20029;-49
2021/12/19 00:39:06;;;;;;;47.17;23.17;;;2.20;99.90;;;1.31;100.00;98845.81;5027987;28;20038;-44
2021/12/19 00:41:32;;;;;;;46.00;21.50;;;2.20;99.90;;;1.31;100.00;98835.41;5027192;28;20033;-46
2021/12/19 00:44:09;;;;;;;45.95;20.95;;;2.20;99.90;;;1.38;100.00;98841.63;5030368;28;20036;-47
2021/12/19 00:46:48;;;;;;;47.55;23.25;;;2.20;99.90;;;1.42;100.00;98835.66;5032427;28;20395;-48
2021/12/19 00:49:15;;;;;;;44.20;21.50;;;2.30;99.90;;;1.43;100.00;98829.63;5030834;28;20037;-47
2021/12/19 00:51:41;;;;;;;37.67;19.17;;;2.30;99.90;;;1.49;100.00;98828.03;5032146;28;20034;-49
2021/12/19 00:54:09;;;;;;;44.10;20.40;;;2.30;99.90;;;1.50;100.00;98821.09;5024721;28;20585;-49
2021/12/19 00:56:40;;;;;;;41.17;20.08;;;2.40;99.90;;;1.52;100.00;98824.63;5032801;28;20052;-48
2021/12/19 00:59:07;;;;;;;45.10;20.08;;;2.40;99.90;;;1.55;100.00;98837.69;5031581;28;20029;-47
2021/12/19 01:01:35;;;;;;;45.17;21.15;;;2.40;99.90;;;1.53;100.00;98826.38;5031176;28;20388;-47
2021/12/19 01:04:03;;;;;;;43.67;20.70;;;2.40;99.90;;;1.53;100.00;98827.25;5032091;28;20032;-49
2021/12/19 01:06:29;;;;;;;42.42;19.83;;;2.40;99.90;;;1.52;100.00;98822.88;5032466;28;20491;-44
2021/12/19 01:08:55;;;;;;;43.70;20.00;;;2.40;99.90;;;1.51;100.00;98820.28;5024993;28;20032;-48
2021/12/19 01:11:21;;;;;;;49.55;22.45;;;2.40;99.90;;;1.48;100.00;98817.59;5029940;28;20099;-46
2021/12/19 01:13:47;;;;;;;47.35;22.98;;;2.40;99.90;;;1.31;100.00;98815.50;5032830;28;20403;-47
2021/12/19 01:16:15;;;;;;;46.10;21.52;;;2.30;99.90;;;1.34;100.00;98814.69;5030255;28;20494;-47
2021/12/19 01:18:42;;;;;;;40.90;20.27;;;2.30;99.90;;;1.39;100.00;98820.00;5033624;28;20037;-46
2021/12/19 01:21:08;;;;;;;45.00;22.63;;;2.30;99.90;;;1.39;100.00;98807.00;5031182;28;20092;-47
2021/12/19 01:23:34;;;;;;;48.20;23.20;;;2.30;99.90;;;1.40;100.00;98819.13;5029113;28;20034;-41
2021/12/19 01:25:59;;;;;;;42.45;20.90;;;2.30;99.90;;;1.44;100.00;98815.78;5027605;28;20487;-44
2021/12/19 01:28:25;;;;;;;47.03;21.58;;;2.30;99.90;;;1.41;100.00;98810.50;5031526;28;20420;-47
2021/12/19 01:30:51;;;;;;;45.13;21.48;;;2.30;99.90;;;1.45;100.00;98820.13;5032958;28;20041;-45
2021/12/19 01:33:17;;;;;;;45.00;22.38;;;2.30;99.90;;;1.34;100.00;98820.75;5029461;28;20045;-46
2021/12/19 01:35:43;;;;;;;43.35;20.15;;;2.20;99.90;;;1.32;100.00;98822.44;5027903;28;20033;-45
2021/12/19 01:38:08;;;;;;;42.13;21.27;;;2.20;99.90;;;1.29;100.00;98826.69;5029041;28;20415;-47
2021/12/19 01:40:34;;;;;;;39.15;19.42;;;2.20;99.90;;;1.26;100.00;98822.31;5026290;28;20503;-44
2021/12/19 01:43:01;;;;;;;43.35;19.50;;;2.20;99.90;;;1.31;100.00;98819.81;5030738;28;20083;-47
2021/12/19 01:45:32;;;;;;;38.67;19.33;;;2.20;99.90;;;1.35;100.00;98826.84;5028946;28;20723;-47
2021/12/19 01:48:01;;;;;;;42.55;20.77;;;2.20;99.90;;;1.44;100.00;98828.78;5032010;28;20033;-47
2021/12/19 01:50:31;;;;;;;46.38;21.10;;;2.20;99.90;;;1.48;100.00;98833.19;5030265;28;20040;-47
2021/12/19 01:52:58;;;;;;;43.40;20.20;;;2.20;99.90;;;1.39;100.00;98827.81;5028666;28;20368;-45
2021/12/19 01:55:24;;;;;;;43.65;20.17;;;2.30;99.90;;;1.31;100.00;98823.31;5029077;28;20048;-46
2021/12/19 01:57:50;;;;;;;45.50;20.73;;;2.20;99.90;;;1.28;100.00;98824.97;5031972;28;20441;-45
2021/12/19 02:00:29;;;;;;;47.00;21.90;;;2.20;99.90;;;1.14;100.00;98817.69;5030796;28;20022;-45
2021/12/19 02:02:56;;;;;;;43.72;19.90;;;2.10;99.90;;;1.11;100.00;98817.66;5030161;28;20029;-43
2021/12/19 02:05:24;;;;;;;44.28;21.02;;;2.10;99.90;;;1.12;100.00;98810.72;5025794;28;20652;-45
2021/12/19 02:07:52;;;;;;;42.33;19.17;;;2.10;99.90;;;1.09;100.00;98818.44;5025301;28;20041;-45
2021/12/19 02:10:27;;;;;;;40.50;19.33;;;2.00;99.90;;;1.03;100.00;98820.91;5030456;28;20029;-45
2021/12/19 02:12:55;;;;;;;41.55;18.77;;;2.00;99.90;;;1.09;100.00;98821.03;5030599;28;20402;-46
2021/12/19 02:15:23;;;;;;;39.17;19.65;;;2.00;99.90;;;1.07;100.00;98818.41;5027393;28;20039;-45
2021/12/19 02:17:54;;;;;;;42.47;19.63;;;2.00;99.90;;;1.00;100.00;98823.44;5030897;28;20490;-44
2021/12/19 02:20:22;;;;;;;39.75;18.80;;;2.00;99.90;;;1.04;100.00;98823.56;5026518;28;20368;-39
2021/12/19 02:22:48;;;;;;;45.63;20.63;;;1.90;99.90;;;0.98;100.00;98818.19;5029337;28;20112;-43
2021/12/19 02:25:14;;;;;;;40.10;18.83;;;2.00;99.90;;;1.00;100.00;98815.63;5028143;28;20033;-45
2021/12/19 02:27:41;;;;;;;41.42;18.27;;;1.90;99.90;;;1.00;100.00;98802.63;5029717;28;20032;-47
2021/12/19 02:30:09;;;;;;;32.63;16.33;;;1.90;99.90;;;1.09;100.00;98801.13;5030133;28;20067;-40
2021/12/19 02:32:38;;;;;;;32.03;15.50;;;1.90;99.90;;;1.09;100.00;98788.13;5028534;28;20036;-45
2021/12/19 02:35:09;;;;;;;37.20;16.45;;;2.00;99.90;;;1.12;100.00;98784.75;5026061;28;20108;-41
2021/12/19 02:48:13;;;;;;;36.83;16.92;;;2.10;99.90;;;1.25;100.00;98781.56;5029359;28;20118;-47
2021/12/19 02:50:49;;;;;;;34.85;16.13;;;2.10;99.90;;;1.32;100.00;98788.66;5028369;28;20026;-42
2021/12/19 02:53:25;;;;;;;37.42;17.05;;;2.20;99.90;;;1.34;100.00;98783.50;5026897;28;20029;-45
2021/12/19 02:55:51;;;;;;;37.17;16.73;;;2.20;99.90;;;1.34;100.00;98778.28;5024818;28;20474;-46
2021/12/19 02:58:16;;;;;;;33.67;16.42;;;2.20;99.90;;;1.29;100.00;98774.72;5027354;28;20098;-46
2021/12/19 03:00:42;;;;;;;35.22;15.95;;;2.20;99.90;;;1.31;100.00;98781.72;5028006;28;20111;-47
2021/12/19 03:03:08;;;;;;;33.13;17.83;;;2.20;99.90;;;1.41;100.00;98779.31;5029611;28;20048;-46
2021/12/19 03:05:34;;;;;;;35.05;16.65;;;2.20;99.90;;;1.39;100.00;98781.88;5027861;28;20026;-43
2021/12/19 03:08:02;;;;;;;35.15;16.92;;;2.20;99.90;;;1.30;100.00;98771.28;5029965;28;20398;-45
2021/12/19 03:18:06;;;;;;;32.97;16.40;;;2.20;99.90;;;1.34;100.00;98763.56;5032804;28;20121;-45
2021/12/19 03:20:33;;;;;;;33.33;16.15;;;2.20;99.90;;;1.33;100.00;98758.34;5033483;28;20036;-48
2021/12/19 03:23:00;;;;;;;37.67;17.13;;;2.20;99.90;;;1.34;100.00;98749.69;5035005;28;20361;-42
2021/12/19 03:25:28;;;;;;;39.45;17.90;;;2.20;99.90;;;1.38;100.00;98753.25;5028967;28;20030;-43
2021/12/19 03:27:54;;;;;;;36.22;17.65;;;2.20;99.90;;;1.36;100.00;98750.59;5033763;28;20033;-48
2021/12/19 03:30:21;;;;;;;37.20;17.45;;;2.20;99.90;;;1.40;100.00;98748.94;5033738;28;20057;-45
2021/12/19 03:32:47;;;;;;;36.42;17.85;;;2.30;99.90;;;1.35;100.00;98748.88;5034389;28;20434;-46
2021/12/19 03:35:13;;;;;;;35.90;17.00;;;2.30;99.90;;;1.28;100.00;98731.38;5031655;28;20073;-43
2021/12/19 03:37:40;;;;;;;35.13;16.50;;;2.20;99.90;;;1.38;100.00;98740.25;5033746;28;20091;-41
2021/12/19 03:40:09;;;;;;;36.67;16.48;;;2.20;99.90;;;1.22;100.00;98723.44;5032476;28;20045;-43
2021/12/19 03:42:41;;;;;;;36.35;17.88;;;2.20;99.90;;;1.20;100.00;98733.78;5030766;28;20102;-46
2021/12/19 03:45:10;;;;;;;38.00;17.00;;;2.20;99.90;;;1.19;100.00;98736.38;5032825;28;20395;-45
2021/12/19 03:47:36;;;;;;;38.13;16.88;;;2.10;99.90;;;1.19;100.00;98732.06;5032518;28;20029;-45
2021/12/19 03:50:06;;;;;;;48.13;18.85;;;2.10;99.90;;;1.15;100.00;98725.06;5033140;28;20445;-47
2021/12/19 03:52:32;;;;;;;34.67;15.82;;;2.10;99.90;;;1.24;100.00;98727.84;5031354;28;20060;-47
2021/12/19 03:54:58;;;;;;;34.63;15.88;;;2.10;99.90;;;1.21;100.00;98730.38;5032428;28;20060;-46
2021/12/19 03:57:24;;;;;;;31.30;14.38;;;2.10;99.90;;;1.21;100.00;98724.31;5031053;28;20034;-45
2021/12/19 03:59:50;;;;;;;29.50;14.20;;;2.10;99.90;;;1.27;100.00;98724.41;5033535;28;20048;-45
2021/12/19 04:02:25;;;;;;;26.98;13.95;;;2.10;99.90;;;1.29;100.00;98738.31;5031922;28;20032;-45
2021/12/19 04:04:53;;;;;;;31.80;15.90;;;2.10;99.90;;;1.33;100.00;98734.97;5032976;28;20041;-45
2021/12/19 04:07:21;;;;;;;34.13;15.10;;;2.20;99.90;;;1.34;100.00;98726.31;5026817;28;20024;-47
2021/12/19 04:09:47;;;;;;;32.75;15.02;;;2.20;99.90;;;1.37;100.00;98725.50;5029480;28;20461;-41
2021/12/19 04:12:13;;;;;;;31.80;14.38;;;2.20;99.90;;;1.32;100.00;98723.66;5029683;28;20450;-45
2021/12/19 04:14:39;;;;;;;35.05;15.77;;;2.20;99.90;;;1.31;100.00;98719.34;5031144;28;20722;-45
2021/12/19 04:17:05;;;;;;;30.08;13.82;;;2.10;99.90;;;1.30;100.00;98714.97;5032621;28;20025;-46
2021/12/19 04:19:33;;;;;;;29.25;13.82;;;2.20;99.90;;;1.31;100.00;98715.84;5028235;28;20398;-44
2021/12/19 04:21:59;;;;;;;30.67;14.70;;;2.20;99.90;;;1.26;100.00;98702.75;5031497;28;20029;-46
2021/12/19 04:24:26;;;;;;;32.13;14.63;;;2.20;99.90;;;1.32;100.00;98710.66;5034116;28;20029;-45
2021/12/19 04:26:57;;;;;;;32.67;15.18;;;2.20;99.90;;;1.26;100.00;98694.97;5026110;28;20048;-45
2021/12/19 04:29:24;;;;;;;33.50;15.98;;;2.20;99.90;;;1.18;100.00;98688.72;5028647;28;20168;-45
2021/12/19 04:31:54;;;;;;;37.05;14.98;;;2.10;99.90;;;1.18;100.00;98693.03;5030282;28;20403;-45
2021/12/19 04:34:21;;;;;;;28.50;13.52;;;2.10;99.90;;;1.21;100.00;98683.59;5030658;28;20044;-46
2021/12/19 04:36:53;;;;;;;29.67;13.82;;;2.10;99.90;;;1.23;100.00;98678.44;5029348;28;20033;-46
2021/12/19 04:50:58;;;;;;;27.55;13.15;;;2.10;99.90;;;1.22;100.00;98674.06;5032404;28;20460;-41
2021/12/19 04:53:18;;;;;;;27.02;12.57;;;2.10;99.90;;;1.20;100.00;98686.16;5028901;28;20048;-45
2021/12/19 05:05:59;;;;;;;22.65;10.75;;;2.20;99.90;;;1.37;100.00;98699.50;5031689;28;20025;-43
2021/12/19 05:14:13;;;;;;;23.83;11.00;;;2.30;99.90;;;1.39;100.00;98684.81;5029696;28;20453;-46
2021/12/19 05:16:43;;;;;;;22.27;10.82;;;2.20;99.90;;;1.30;100.00;98683.78;5031578;28;20095;-46
2021/12/19 05:19:21;;;;;;;24.67;11.20;;;2.20;99.90;;;1.21;100.00;98688.78;5029564;28;20104;-47
2021/12/19 05:21:48;;;;;;;25.10;12.60;;;2.10;99.90;;;1.17;100.00;98701.66;5028672;28;20291;-45
2021/12/19 05:26:44;;;;;;;19.23;10.55;;;2.00;99.90;;;1.10;100.00;98692.88;5033280;28;20033;-46
2021/12/19 05:29:10;;;;;;;28.35;12.40;;;2.00;99.90;;;1.05;100.00;98690.19;5029608;28;20037;-47
2021/12/19 05:31:37;;;;;;;26.13;13.10;;;2.00;99.90;;;1.04;100.00;98696.25;5031665;28;20553;-46
2021/12/19 05:34:03;;;;;;;21.60;10.98;;;2.00;99.90;;;0.94;100.00;98687.34;5031197;28;20121;-44
2021/12/19 05:47:07;;;;;;;23.10;11.55;;;1.70;99.90;;;0.69;100.00;98687.66;5029313;28;20124;-49
2021/12/19 05:49:34;;;;;;;29.35;11.38;;;1.70;99.90;;;0.74;100.00;98678.25;5031486;28;20021;-44
2021/12/19 05:52:01;;;;;;;23.63;10.32;;;1.70;99.90;;;0.61;100.00;98687.47;5026477;28;20449;-47
2021/12/19 05:54:27;;;;;;;26.02;11.90;;;1.60;99.90;;;0.52;100.00;98690.72;5029456;28;20250;-46
2021/12/19 05:56:53;;;;;;;25.20;11.48;;;1.50;99.90;;;0.47;100.00;98687.16;5033206;28;20375;-46
2021/12/19 05:59:19;;;;;;;25.35;11.20;;;1.50;99.90;;;0.46;100.00;98680.19;5031262;28;20025;-46
2021/12/19 06:01:46;;;;;;;23.70;10.73;;;1.50;99.90;;;0.48;100.00;98678.50;5029953;28;20021;-45
2021/12/19 06:04:12;;;;;;;24.05;10.38;;;1.50;99.90;;;0.45;100.00;98682.75;5026487;28;20326;-44
2021/12/19 06:06:38;;;;;;;25.17;10.70;;;1.40;99.90;;;0.45;100.00;98683.66;5028181;28;20025;-45
2021/12/19 06:09:05;;;;;;;26.20;11.43;;;1.40;99.90;;;0.40;100.00;98674.00;5028917;28;20024;-46
2021/12/19 06:11:32;;;;;;;20.98;10.20;;;1.40;99.90;;;0.46;100.00;98675.00;5029910;28;20031;-47
2021/12/19 06:13:57;;;;;;;25.45;11.05;;;1.40;99.90;;;0.42;100.00;98667.13;5025765;28;20034;-49
2021/12/19 06:16:23;;;;;;;21.90;10.70;;;1.40;99.90;;;0.41;100.00;98662.75;5027632;28;20032;-46
2021/12/19 06:18:49;;;;;;;20.75;10.27;;;1.40;99.90;;;0.47;100.00;98661.19;5030889;28;20551;-48
2021/12/19 06:21:15;;;;;;;22.75;10.90;;;1.40;99.90;;;0.49;100.00;98656.91;5025846;28;20033;-42
2021/12/19 06:23:40;;;;;;;22.45;10.73;;;1.40;99.90;;;0.44;100.00;98650.72;5028463;28;20225;-43
2021/12/19 06:26:10;;;;;;;21.98;10.25;;;1.40;99.90;;;0.53;100.00;98658.72;5028685;28;20021;-43
2021/12/19 06:28:36;;;;;;;20.23;10.10;;;1.50;99.90;;;0.53;100.00;98656.13;5028250;28;20509;-45
2021/12/19 06:31:02;;;;;;;22.55;10.13;;;1.40;99.90;;;0.55;100.00;98641.47;5026741;28;20103;-46
2021/12/19 06:33:28;;;;;;;22.88;9.68;;;1.50;99.90;;;0.55;100.00;98643.19;5027766;28;20024;-43
2021/12/19 06:35:54;;;;;;;26.33;11.23;;;1.50;99.90;;;0.59;100.00;98638.94;5027829;28;20053;-44
2021/12/19 06:38:19;;;;;;;22.83;10.43;;;1.50;99.90;;;0.62;100.00;98631.22;5029990;28;20106;-46
2021/12/19 06:40:45;;;;;;;22.60;10.80;;;1.50;99.90;;;0.60;100.00;98635.50;5024925;28;20034;-41
2021/12/19 06:43:11;;;;;;;20.50;10.30;;;1.50;99.90;;;0.62;100.00;98634.69;5023706;28;20629;-45
2021/12/19 06:45:37;;;;;;;21.08;9.82;;;1.50;99.90;;;0.64;100.00;98634.72;5029226;28;20065;-45
2021/12/19 06:48:02;;;;;;;18.90;9.63;;;1.50;99.90;;;0.64;100.00;98638.19;5031260;28;20025;-47
2021/12/19 06:50:28;;;;;;;18.08;9.52;;;1.50;99.90;;;0.66;100.00;98623.53;5028383;28;20698;-47
2021/12/19 06:52:54;;;;;;;19.80;10.27;;;1.50;99.90;;;0.65;100.00;98629.56;5029349;28;20037;-47
2021/12/19 06:55:20;;;;;;;18.75;9.20;;;1.50;99.90;;;0.65;100.00;98629.56;5025459;28;20029;-45
2021/12/19 06:57:46;;;;;;;19.88;9.32;;;1.50;99.90;;;0.73;100.00;98630.59;5025624;28;20037;-45
2021/12/19 07:00:22;;;;;;;23.42;10.63;;;1.60;99.90;;;0.69;100.00;98635.72;5030126;28;20075;-46
2021/12/19 07:02:48;;;;;;;21.15;9.63;;;1.60;99.90;;;0.63;100.00;98641.66;5027089;28;20115;-45
2021/12/19 07:05:14;;;;;;;19.75;9.20;;;1.60;99.90;;;0.65;100.00;98644.28;5025913;28;20459;-46
2021/12/19 07:07:40;;;;;;;22.20;9.38;;;1.60;99.90;;;0.58;100.00;98643.28;5028274;28;20045;-45
2021/12/19 07:10:07;;;;;;;20.00;8.73;;;1.50;99.90;;;0.58;100.00;98643.28;5028858;28;20263;-47
2021/12/19 07:12:34;;;;;;;16.73;8.23;;;1.50;99.90;;;0.57;100.00;98638.91;5025961;28;20033;-45
2021/12/19 07:15:00;;;;;;;18.27;8.73;;;1.50;99.90;;;0.56;100.00;98640.63;5030044;28;20107;-46
2021/12/19 07:17:26;;;;;;;19.35;9.25;;;1.50;99.90;;;0.56;100.00;98643.22;5028571;28;20024;-44
2021/12/19 07:19:52;;;;;;;16.67;8.27;;;1.50;99.90;;;0.53;100.00;98643.16;5031130;28;20048;-43
2021/12/19 07:22:18;;;;;;;18.35;8.30;;;1.50;99.90;;;0.57;100.00;98642.41;5026965;28;20034;-45
2021/12/19 07:24:45;;;;;;;16.05;7.60;;;1.50;99.90;;;0.58;100.00;98643.28;5027716;28;20047;-45
2021/12/19 07:27:14;;;;;;;17.33;7.60;;;1.50;99.90;;;0.61;100.00;98634.66;5025216;28;20025;-45
2021/12/19 07:29:40;;;;;;;16.35;7.43;;;1.50;99.90;;;0.59;100.00;98637.22;5025408;28;20025;-44
2021/12/19 07:32:07;;;;;;;14.45;7.38;;;1.50;99.90;;;0.61;100.00;98629.47;5027607;28;20028;-45
2021/12/19 07:34:35;;;;;;;15.35;7.38;;;1.50;99.90;;;0.56;100.00;98627.66;5027616;28;20065;-44
2021/12/19 07:37:01;;;;;;;15.25;7.40;;;1.50;99.90;;;0.58;100.00;98630.28;5027220;28;20414;-47
2021/12/19 07:41:53;;;;;;;14.55;7.25;;;1.50;99.90;;;0.60;100.00;98640.72;5026773;28;20061;-47
2021/12/19 07:44:20;;;;;;;12.52;6.53;;;1.50;99.90;;;0.60;100.00;98633.78;5029454;28;20113;-46
2021/12/19 07:46:46;;;;;;;14.77;7.00;;;1.50;99.90;;;0.63;100.00;98646.84;5029135;28;20036;-45
2021/12/19 07:49:12;;;;;;;16.48;7.22;;;1.50;99.90;;;0.70;100.00;98647.84;5026738;28;20030;-45
2021/12/19 07:51:38;;;;;;;12.65;6.47;;;1.60;99.90;;;0.68;100.00;98645.22;5029434;28;20041;-47
2021/12/19 07:54:04;;;;;;;12.73;6.22;;;1.60;99.90;;;0.66;100.00;98636.50;5027043;28;20037;-45
2021/12/19 07:56:29;;;;;;;12.77;6.55;;;1.60;99.90;;;0.66;100.00;98641.69;5026648;28;20090;-44
2021/12/19 07:58:55;;;;;;;13.90;7.05;;;1.60;99.90;;;0.70;100.00;98638.34;5029182;28;20123;-45
2021/12/19 08:01:21;;;;;;;14.25;6.60;;;1.60;99.90;;;0.72;100.00;98631.47;5025415;28;20095;-45
2021/12/19 08:03:46;;;;;;;13.73;6.53;;;1.60;99.90;;;0.72;100.00;98628.00;5027736;28;20037;-45
2021/12/19 08:06:12;;;;;;;12.38;5.95;;;1.70;99.90;;;0.71;100.00;98634.03;5031790;28;20036;-45
2021/12/19 08:08:38;;;;;;;12.15;6.07;;;1.60;99.90;;;0.77;100.00;98634.16;5035195;28;20033;-45
2021/12/19 08:13:48;;;;;;;12.32;6.28;;;1.70;99.90;;;0.85;100.00;98627.41;5031463;28;20052;-45
2021/12/19 08:16:14;;;;;;;11.52;5.90;;;1.70;99.90;;;0.87;100.00;98609.25;5027430;28;20029;-45
2021/12/19 08:18:40;;;;;;;13.25;5.82;;;1.80;99.90;;;0.86;100.00;98605.81;5026876;28;20481;-44
2021/12/19 08:21:05;;;;;;;12.93;6.15;;;1.80;99.90;;;0.92;100.00;98607.66;5028021;28;20029;-39
2021/12/19 08:23:33;;;;;;;11.93;6.40;;;1.80;99.90;;;0.91;100.00;98611.94;5029704;28;20037;-46
2021/12/19 08:25:59;;;;;;;10.40;5.65;;;1.80;99.90;;;0.90;100.00;98599.81;5032690;28;20111;-44
2021/12/19 08:28:25;;;;;;;11.68;6.10;;;1.80;99.90;;;0.93;100.00;98605.09;5029023;28;20108;-44
2021/12/19 08:30:51;;;;;;;9.73;5.18;;;1.80;99.90;;;1.01;100.00;98612.16;5031814;28;20063;-45
2021/12/19 08:33:17;;;;;;;10.80;5.40;;;1.90;99.90;;;1.02;100.00;98617.34;5033988;28;20765;-45
2021/12/19 08:35:42;;;;;;;12.75;5.53;;;1.90;99.90;;;0.95;100.00;98618.06;5027376;28;21208;-45
2021/12/19 08:38:08;;;;;;;10.27;5.55;;;1.90;99.90;;;0.95;100.00;98623.28;5031113;28;20029;-46
2021/12/19 08:40:34;;;;;;;11.50;5.53;;;1.90;99.90;;;0.96;100.00;98617.25;5033106;28;20101;-42
2021/12/19 08:43:00;;;;;;;11.32;5.45;;;1.90;99.90;;;1.02;100.00;98616.50;5027954;28;20033;-43
2021/12/19 08:45:26;;;;;;;10.80;5.50;;;1.90;99.90;;;1.08;100.00;98614.03;5029540;28;20029;-44
2021/12/19 08:47:52;;;;;;;10.70;5.38;;;1.90;99.90;;;1.16;100.00;98609.84;5030003;28;20349;-45
2021/12/19 08:50:18;;;;;;;11.52;5.65;;;2.00;99.90;;;1.20;100.00;98595.19;5021436;28;20337;-46
2021/12/19 08:52:44;;;;;;;10.10;5.25;;;2.00;99.90;;;1.20;100.00;98609.06;5023004;28;20750;-46
2021/12/19 08:55:13;;;;;;;9.00;4.95;;;2.10;99.90;;;1.23;100.00;98597.88;5031360;28;20088;-43
2021/12/19 08:57:39;;;;;;;9.55;4.82;;;2.10;99.90;;;1.29;100.00;98598.88;5029519;28;20041;-45
2021/12/19 09:00:10;;;;;;;11.70;6.03;;;2.20;99.90;;;1.23;100.00;98592.66;5030294;28;20506;-48
2021/12/19 09:02:37;;;;;;;13.65;6.00;;;2.20;99.90;;;1.19;100.00;98591.72;5031344;28;20497;-45
2021/12/19 09:05:03;;;;;;;12.85;6.15;;;2.20;99.90;;;1.30;100.00;98591.94;5029194;28;20490;-43
2021/12/19 09:07:28;;;;;;;9.93;5.25;;;2.20;99.90;;;1.26;100.00;98593.59;5027693;28;20160;-46
2021/12/19 09:09:54;;;;;;;9.60;5.68;;;2.20;99.90;;;1.27;100.00;98600.53;5030033;28;20037;-45
2021/12/19 09:12:20;;;;;;;9.25;4.70;;;2.20;99.90;;;1.32;100.00;98588.50;5030410;28;20036;-46
2021/12/19 09:14:46;;;;;;;10.52;4.88;;;2.20;99.90;;;1.38;100.00;98579.06;5029688;28;20074;-44
2021/12/19 09:17:11;;;;;;;7.78;3.85;;;2.30;99.90;;;1.51;100.00;98594.94;5027299;28;20040;-46
2021/12/19 09:19:37;;;;;;;5.40;3.45;;;2.30;99.90;;;1.59;100.00;98597.66;5024116;28;20103;-44
2021/12/19 09:22:03;;;;;;;7.63;3.70;;;2.40;99.90;;;1.45;100.00;98568.81;5025103;28;20033;-44
2021/12/19 09:24:29;;;;;;;5.30;3.22;;;2.50;99.90;;;1.73;100.00;98594.44;5019531;28;20394;-47
2021/12/19 09:26:55;;;;;;;5.00;2.92;;;2.50;99.90;;;1.61;100.00;98576.88;5029160;28;20116;-46
2021/12/19 09:29:28;;;;;;;6.78;3.25;;;2.60;99.90;;;1.77;100.00;98596.25;5031034;28;20486;-45
2021/12/19 09:31:55;;;;;;;6.30;3.40;;;2.60;99.90;;;1.78;100.00;98603.22;5030127;28;20029;-46
2021/12/19 09:34:23;;;;;;;6.50;3.72;;;2.60;99.90;;;1.82;100.00;98597.19;5031029;28;20040;-46
2021/12/19 09:36:48;;;;;;;6.32;3.20;;;2.60;99.90;;;1.91;100.00;98590.41;5022878;28;20063;-46
2021/12/19 09:39:14;;;;;;;7.05;3.20;;;2.70;99.90;;;1.88;100.00;98589.47;5019923;28;20159;-45
2021/12/19 09:41:44;;;;;;;7.10;3.80;;;2.70;99.90;;;1.93;100.00;98589.56;5024957;28;20215;-45
2021/12/19 09:44:13;;;;;;;4.90;3.22;;;2.80;99.90;;;2.04;100.00;98586.28;5021939;28;20406;-47
2021/12/19 09:46:42;;;;;;;6.28;3.50;;;2.80;99.90;;;2.07;100.00;98578.53;5028938;28;20116;-44
2021/12/19 09:49:13;;;;;;;5.75;2.97;;;2.90;99.90;;;2.16;100.00;98579.53;5029478;28;20032;-47
2021/12/19 09:51:39;;;;;;;5.68;3.15;;;2.90;99.90;;;2.21;100.00;98573.53;5027602;28;20525;-45
2021/12/19 09:54:06;;;;;;;6.80;3.20;;;3.00;99.90;;;2.25;100.00;98574.47;5029977;28;20041;-42
2021/12/19 09:56:34;;;;;;;5.07;2.65;;;3.10;99.90;;;2.25;100.00;98569.25;5025524;28;20029;-45
2021/12/19 09:59:02;;;;;;;4.97;2.67;;;3.10;99.90;;;2.28;100.00;98557.16;5028215;28;20087;-45
2021/12/19 10:01:28;;;;;;;5.63;3.45;;;3.10;99.90;;;2.22;100.00;98540.56;5025904;28;20042;-46
2021/12/19 10:03:54;;;;;;;5.45;3.08;;;3.20;99.90;;;2.37;100.00;98556.44;5030728;28;20084;-41
2021/12/19 10:06:24;;;;;;;5.43;2.95;;;3.20;99.90;;;2.33;100.00;98548.53;5029230;28;20037;-46
2021/12/19 10:09:12;;;;;;;4.72;3.13;;;3.20;99.90;;;2.29;100.00;98550.22;5026966;28;20029;-44
2021/12/19 10:12:10;;;;;;;3.90;2.75;;;3.20;99.90;;;2.21;100.00;98547.50;5026504;28;20450;-45
2021/12/19 10:14:38;;;;;;;4.90;2.58;;;3.10;99.90;;;2.21;100.00;98549.25;5028719;28;20040;-43
2021/12/19 10:17:16;;;;;;;5.45;2.50;;;3.10;99.90;;;2.32;100.00;98544.19;5028028;28;20043;-44
2021/12/19 10:19:52;;;;;;;5.30;2.55;;;3.10;99.90;;;2.25;100.00;98549.31;5025409;28;20566;-43
2021/12/19 10:22:35;;;;;;;4.78;2.40;;;3.10;99.90;;;2.36;100.00;98541.63;5030116;28;20124;-42
2021/12/19 10:25:17;;;;;;;3.15;2.17;;;3.20;99.90;;;2.34;100.00;98535.53;5024934;28;20167;-46
2021/12/19 10:27:56;;;;;;;3.47;2.13;;;3.20;99.90;;;2.42;100.00;98525.22;5022900;28;20239;-43
2021/12/19 10:30:30;;;;;;;4.47;2.35;;;3.20;99.90;;;2.51;100.00;98519.28;5025117;28;20094;-45
2021/12/19 10:33:08;;;;;;;3.88;1.95;;;3.30;99.90;;;2.52;100.00;98515.81;5027403;28;20033;-45
2021/12/19 10:35:43;;;;;;;3.80;2.45;;;3.40;99.90;;;2.51;100.00;98509.72;5026737;28;20033;-42
2021/12/19 10:38:27;;;;;;;3.63;2.15;;;3.40;99.90;;;2.51;100.00;98509.72;5036141;28;20449;-47
2021/12/19 10:40:56;;;;;;;3.55;2.13;;;3.40;99.90;;;2.49;100.00;98511.44;5016142;28;20041;-46
2021/12/19 10:43:26;;;;;;;5.32;2.22;;;3.30;99.90;;;2.44;100.00;98508.78;5022473;28;20056;-44
2021/12/19 10:45:59;;;;;;;3.38;2.10;;;3.30;99.90;;;2.33;100.00;98499.94;5022217;28;20107;-38
2021/12/19 10:48:37;;;;;;;3.05;1.83;;;3.30;99.90;;;2.40;100.00;98506.97;5022326;28;20052;-44
2021/12/19 10:51:19;;;;;;;2.35;1.52;;;3.20;99.90;;;2.41;100.00;98495.72;5027544;28;20739;-43
2021/12/19 10:53:55;;;;;;;1.98;1.45;;;3.30;99.90;;;2.47;100.00;98495.78;5026012;28;20539;-45
2021/12/19 10:56:32;;;;;;;2.75;1.83;;;3.30;99.90;;;2.44;100.00;98489.66;5018239;28;20045;-44
2021/12/19 10:59:06;;;;;;;3.42;2.20;;;3.30;99.90;;;2.40;100.00;98485.28;5025713;28;20276;-46
2021/12/19 11:01:45;;;;;;;5.55;2.40;;;3.30;99.90;;;2.27;100.00;98479.03;5027579;28;20038;-46
2021/12/19 11:04:20;;;;;;;4.57;2.47;;;3.20;99.90;;;2.26;100.00;98467.75;5026554;28;20024;-44
2021/12/19 11:06:56;;;;;;;3.35;2.00;;;3.20;99.90;;;2.33;100.00;98467.81;5025757;28;20034;-43
2021/12/19 11:09:27;;;;;;;3.78;2.60;;;3.20;99.90;;;2.26;100.00;98462.56;5028080;28;20056;-45
2021/12/19 11:12:05;;;;;;;3.40;2.22;;;3.20;99.90;;;2.35;100.00;98459.22;5025746;28;20320;-46
2021/12/19 11:14:37;;;;;;;4.10;2.40;;;3.20;99.90;;;2.42;100.00;98448.00;5026367;28;20027;-45
2021/12/19 11:17:11;;;;;;;3.53;2.35;;;3.30;99.90;;;2.47;100.00;98448.91;5024242;28;20166;-45
2021/12/19 11:19:42;;;;;;;4.60;2.58;;;3.30;99.90;;;2.32;100.00;98448.75;5026879;28;20053;-45
2021/12/19 11:22:10;;;;;;;4.80;2.63;;;3.30;99.90;;;2.27;100.00;98446.06;5024090;28;20041;-46
2021/12/19 11:24:36;;;;;;;5.80;2.80;;;3.30;99.90;;;2.34;100.00;98447.03;5026092;28;20501;-47
2021/12/19 11:27:06;;;;;;;5.00;3.00;;;3.20;99.90;;;2.39;100.00;98436.69;5027451;28;20128;-45
2021/12/19 11:29:32;;;;;;;4.20;2.90;;;3.20;99.90;;;2.13;100.00;98423.31;5028084;28;20076;-46
2021/12/19 11:32:03;;;;;;;5.00;2.70;;;3.20;99.90;;;2.20;100.00;98433.81;5025388;28;20072;-46